Map

Track Data

SID SEASON NUMBER BASIN SUBBASIN NAME ISO_TIME NATURE LAT LON WMO_WIND WMO_PRES WMO_AGENCY TRACK_TYPE DIST2LAND LANDFALL IFLAG USA_AGENCY USA_ATCF_ID USA_LAT USA_LON USA_RECORD USA_STATUS USA_WIND USA_PRES USA_SSHS USA_R34_NE USA_R34_SE USA_R34_SW USA_R34_NW USA_R50_NE USA_R50_SE USA_R50_SW USA_R50_NW USA_R64_NE USA_R64_SE USA_R64_SW USA_R64_NW USA_POCI USA_ROCI USA_RMW USA_EYE TOKYO_LAT TOKYO_LON TOKYO_GRADE TOKYO_WIND TOKYO_PRES TOKYO_R50_DIR TOKYO_R50_LONG TOKYO_R50_SHORT TOKYO_R30_DIR TOKYO_R30_LONG TOKYO_R30_SHORT TOKYO_LAND CMA_LAT CMA_LON CMA_CAT CMA_WIND CMA_PRES HKO_LAT HKO_LON HKO_CAT HKO_WIND HKO_PRES NEWDELHI_LAT NEWDELHI_LON NEWDELHI_GRADE NEWDELHI_WIND NEWDELHI_PRES NEWDELHI_CI NEWDELHI_DP NEWDELHI_POCI REUNION_LAT REUNION_LON REUNION_TYPE REUNION_WIND REUNION_PRES REUNION_TNUM REUNION_CI REUNION_RMW REUNION_R34_NE REUNION_R34_SE REUNION_R34_SW REUNION_R34_NW REUNION_R50_NE REUNION_R50_SE REUNION_R50_SW REUNION_R50_NW REUNION_R64_NE REUNION_R64_SE REUNION_R64_SW REUNION_R64_NW BOM_LAT BOM_LON BOM_TYPE BOM_WIND BOM_PRES BOM_TNUM BOM_CI BOM_RMW BOM_R34_NE BOM_R34_SE BOM_R34_SW BOM_R34_NW BOM_R50_NE BOM_R50_SE BOM_R50_SW BOM_R50_NW BOM_R64_NE BOM_R64_SE BOM_R64_SW BOM_R64_NW BOM_ROCI BOM_POCI BOM_EYE BOM_POS_METHOD BOM_PRES_METHOD NADI_LAT NADI_LON NADI_CAT NADI_WIND NADI_PRES WELLINGTON_LAT WELLINGTON_LON WELLINGTON_WIND WELLINGTON_PRES DS824_LAT DS824_LON DS824_STAGE DS824_WIND DS824_PRES TD9636_LAT TD9636_LON TD9636_STAGE TD9636_WIND TD9636_PRES TD9635_LAT TD9635_LON TD9635_WIND TD9635_PRES TD9635_ROCI NEUMANN_LAT NEUMANN_LON NEUMANN_CLASS NEUMANN_WIND NEUMANN_PRES MLC_LAT MLC_LON MLC_CLASS MLC_WIND MLC_PRES USA_GUST BOM_GUST BOM_GUST_PER REUNION_GUST REUNION_GUST_PER USA_SEAHGT USA_SEARAD_NE USA_SEARAD_SE USA_SEARAD_SW USA_SEARAD_NW STORM_SPEED STORM_DIR
1967342S08078 1968 141 SI MM BELINDA 1967-12-08 06:00:00 TS -8.00000 78.3000 main 1578 1578 O________OO___ jtwc_sh SH031968 -8.00000 78.3000 -1 -8.00000 78.3000 TC 25 -8.00000 78.3000 7 2 244
1967342S08078 1968 141 SI MM BELINDA 1967-12-08 09:00:00 TS -8.04647 78.2009 main 1580 1580 P________PP___ SH031968 -8.05251 78.1975 -1 -8.05251 78.1975 TC 25 -8.03438 78.2078 7 2 245
1967342S08078 1968 141 SI MM BELINDA 1967-12-08 12:00:00 TS -8.09167 78.1042 main 1593 1593 O________OP___ jtwc_sh SH031968 -8.10000 78.1000 -1 -8.10000 78.1000 TC 25 -8.07500 78.1125 7 2 244
1967342S08078 1968 141 SI MM BELINDA 1967-12-08 15:00:00 TS -8.13770 78.0086 main 1595 1595 P________PP___ SH031968 -8.14249 78.0075 -1 -8.14249 78.0075 TC 25 -8.12812 78.0109 7 2 242
1967342S08078 1968 141 SI MM BELINDA 1967-12-08 18:00:00 TS -8.20000 77.9000 main 1608 1608 O________OO___ jtwc_sh SH031968 -8.20000 77.9000 -1 -8.20000 77.9000 TC 25 -8.20000 77.9000 7 3 238
1967342S08078 1968 141 SI MM BELINDA 1967-12-08 21:00:00 TS -8.29293 77.7594 main 1621 1621 P________PP___ SH031968 -8.29251 77.7500 -1 -8.29251 77.7500 TC 25 -8.29376 77.7782 7 3 235
1967342S08078 1968 141 SI MM BELINDA 1967-12-09 00:00:00 TS -8.40000 77.6167 main 1636 1636 O________OP___ jtwc_sh SH031968 -8.40000 77.6000 -1 -8.40000 77.6000 TC 25 -8.40001 77.6500 7 3 230
1967342S08078 1968 141 SI MM BELINDA 1967-12-09 03:00:00 TS -8.50708 77.5023 main 1649 1649 P________PP___ SH031968 -8.50749 77.4925 -1 -8.50749 77.4925 TC 25 -8.50626 77.5219 7 3 227
1967342S08078 1968 141 SI MM BELINDA 1967-12-09 06:00:00 TS -8.60000 77.4000 main 1663 1663 O________OO___ jtwc_sh SH031968 -8.60000 77.4000 -1 -8.60000 77.4000 TC 25 -8.60000 77.4000 7 3 233
1967342S08078 1968 141 SI MM BELINDA 1967-12-09 09:00:00 TS -8.65978 77.2976 main 1676 1676 P________PP___ SH031968 -8.65750 77.3000 -1 -8.65750 77.3000 TC 25 -8.66436 77.2928 7 2 242
1967342S08078 1968 141 SI MM BELINDA 1967-12-09 12:00:00 TS -8.70499 77.1975 main 1678 1678 O________OP___ jtwc_sh SH031968 -8.70000 77.2000 -1 -8.70000 77.2000 TC 25 -8.71498 77.1925 7 2 245
1967342S08078 1968 141 SI MM BELINDA 1967-12-09 15:00:00 TS -8.75270 77.0986 main 1692 1692 P________PP___ SH031968 -8.75000 77.1000 -1 -8.75000 77.1000 TC 25 -8.75811 77.0959 7 2 244
1967342S08078 1968 141 SI MM BELINDA 1967-12-09 18:00:00 TS -8.80000 77.0000 main 1694 1694 O________OO___ jtwc_sh SH031968 -8.80000 77.0000 -1 -8.80000 77.0000 TC 25 -8.80000 77.0000 7 2 244
1967342S08078 1968 141 SI MM BELINDA 1967-12-09 21:00:00 TS -8.84728 76.9027 main 1697 1697 P________PP___ SH031968 -8.85000 76.9000 -1 -8.85000 76.9000 TC 25 -8.84185 76.9081 7 2 244
1967342S08078 1968 141 SI MM BELINDA 1967-12-10 00:00:00 TS -8.89499 76.8050 main 1711 1711 O________OP___ jtwc_sh SH031968 -8.90000 76.8000 -1 -8.90000 76.8000 TC 25 -8.88496 76.8149 7 2 244
1967342S08078 1968 141 SI MM BELINDA 1967-12-10 03:00:00 TS -8.94019 76.7098 main 1713 1713 P________PP___ SH031968 -8.94249 76.7075 -1 -8.94249 76.7075 TC 25 -8.93559 76.7143 7 2 242
1967342S08078 1968 141 SI MM BELINDA 1967-12-10 06:00:00 TS -9.00000 76.6000 main 1727 1727 O________OO___ jtwc_sh SH031968 -9.00000 76.6000 -1 -9.00000 76.6000 TC 25 -9.00000 76.6000 7 3 239
1967342S08078 1968 141 SI MM BELINDA 1967-12-10 09:00:00 TS -9.08750 76.4598 main 1741 1741 P________PP___ SH031968 -9.09250 76.4575 -1 -9.09250 76.4575 TC 25 -9.07751 76.4644 7 3 237
1967342S08078 1968 141 SI MM BELINDA 1967-12-10 12:00:00 TS -9.19000 76.3050 main 1757 1757 O________OP___ jtwc_sh SH031968 -9.20000 76.3000 -1 -9.20000 76.3000 TC 25 -9.17001 76.3150 7 4 237
1967342S08078 1968 141 SI MM BELINDA 1967-12-10 15:00:00 TS -9.28750 76.1527 main 1771 1771 P________PP___ SH031968 -9.29249 76.1500 -1 -9.29249 76.1500 TC 25 -9.27750 76.1581 7 4 235
1967342S08078 1968 141 SI MM BELINDA 1967-12-10 18:00:00 TS -9.40000 76.0000 main 1788 1788 O________OO___ jtwc_sh SH031968 -9.40000 76.0000 -1 -9.40000 76.0000 TC 25 -9.40000 76.0000 7 4 230
1967342S08078 1968 141 SI MM BELINDA 1967-12-10 21:00:00 TS -9.54156 75.8473 main 1805 1805 P________PP___ SH031968 -9.54249 75.8500 -1 -9.54249 75.8500 TC 25 -9.53969 75.8419 7 4 225
1967342S08078 1968 141 SI MM BELINDA 1967-12-11 00:00:00 TS -9.69750 75.6950 main 1830 1830 O________OP___ jtwc_sh SH031968 -9.70000 75.7000 -1 -9.70000 75.7000 TC 25 -9.69251 75.6850 7 4 225
1967342S08078 1968 141 SI MM BELINDA 1967-12-11 03:00:00 TS -9.84969 75.5402 main 1847 1847 P________PP___ SH031968 -9.85000 75.5425 -1 -9.85000 75.5425 TC 25 -9.84907 75.5357 7 4 224
1967342S08078 1968 141 SI MM BELINDA 1967-12-11 06:00:00 TS -10.0000 75.4000 main 1872 1872 O________OO___ jtwc_sh SH031968 -10.0000 75.4000 -1 -10.0000 75.4000 TC 25 -10.0000 75.4000 7 4 220
1967342S08078 1968 141 SI MM BELINDA 1967-12-11 09:00:00 TS -10.1477 75.2902 main 1886 1886 P________PP___ SH031968 -10.1575 75.2925 -1 -10.1575 75.2925 TC 25 -10.1281 75.2856 7 3 215
1967342S08078 1968 141 SI MM BELINDA 1967-12-11 12:00:00 TS -10.2833 75.1950 main 1911 1911 O________OP___ jtwc_sh SH031968 -10.3000 75.2000 -1 -10.3000 75.2000 TC 25 -10.2500 75.1849 7 3 218
1967342S08078 1968 141 SI MM BELINDA 1967-12-11 15:00:00 TS -10.3906 75.0973 main 1925 1925 P________PP___ SH031968 -10.4000 75.1000 -1 -10.4000 75.1000 TC 25 -10.3718 75.0918 7 3 221
1967342S08078 1968 141 SI MM BELINDA 1967-12-11 18:00:00 TS -10.5000 75.0000 main 1939 1939 O________OO___ jtwc_sh SH031968 -10.5000 75.0000 -1 -10.5000 75.0000 TC 25 -10.5000 75.0000 7 3 219
1967342S08078 1968 141 SI MM BELINDA 1967-12-11 21:00:00 TS -10.6372 74.8959 main 1953 1953 P________PP___ SH031968 -10.6425 74.9000 -1 -10.6425 74.9000 TC 25 -10.6266 74.8878 7 4 216
1967342S08078 1968 141 SI MM BELINDA 1967-12-12 00:00:00 TS -10.7875 74.7925 main 1978 1978 O________OP___ jtwc_sh SH031968 -10.8000 74.8000 -1 -10.8000 74.8000 TC 25 -10.7625 74.7775 7 4 215
1967342S08078 1968 141 SI MM BELINDA 1967-12-12 03:00:00 TS -10.9291 74.6878 main 1992 1992 P________PP___ SH031968 -10.9350 74.6925 -1 -10.9350 74.6925 TC 25 -10.9172 74.6785 7 4 211
1967342S08078 1968 141 SI MM BELINDA 1967-12-12 06:00:00 TS -11.1000 74.6000 main 2017 2017 O________OO___ jtwc_sh SH031968 -11.1000 74.6000 -1 -11.1000 74.6000 TC 25 -11.1000 74.6000 7 4 201
1967342S08078 1968 141 SI MM BELINDA 1967-12-12 09:00:00 TS -11.3277 74.5384 main 2042 2031 P________PP___ SH031968 -11.3350 74.5350 -1 -11.3350 74.5350 TC 25 -11.3131 74.5453 7 5 191
1967342S08078 1968 141 SI MM BELINDA 1967-12-12 12:00:00 TS -11.5850 74.5042 main 2031 2020 O________OP___ jtwc_sh SH031968 -11.6000 74.5000 -1 -11.6000 74.5000 TC 25 -11.5550 74.5125 7 5 184
1967342S08078 1968 141 SI MM BELINDA 1967-12-12 15:00:00 TS -11.8348 74.4945 main 2020 2003 P________PP___ SH031968 -11.8425 74.4925 -1 -11.8425 74.4925 TC 25 -11.8194 74.4985 7 5 0
1967342S08078 1968 141 SI MM BELINDA 1967-12-12 18:00:00 TS -12.1000 74.5000 main 2003 1987 O________OO___ jtwc_sh SH031968 -12.1000 74.5000 -1 -12.1000 74.5000 TC 25 -12.1000 74.5000 7 6 179
1967342S08078 1968 141 SI MM BELINDA 1967-12-12 21:00:00 TS -12.3943 74.4985 main 1987 1971 P________PP___ SH031968 -12.3925 74.4925 -1 -12.3925 74.4925 TC 25 -12.3978 74.5106 7 6 179
1967342S08078 1968 141 SI MM BELINDA 1967-12-13 00:00:00 TS -12.7025 74.5116 main 1971 1956 O________OP___ jtwc_sh SH031968 -12.7000 74.5000 -1 -12.7000 74.5000 TC 25 -12.7075 74.5349 7 6 175
1967342S08078 1968 141 SI MM BELINDA 1967-12-13 03:00:00 TS -13.0095 74.5556 main 1965 1960 P________PP___ SH031968 -13.0075 74.5500 -1 -13.0075 74.5500 TC 25 -13.0134 74.5668 7 7 143
1967342S08078 1968 141 SI MM BELINDA 1967-12-13 06:00:00 TS -13.2429 74.9286 reunion main 1985 1980 O____O___OO_O_ jtwc_sh SH031968 -13.3000 74.6000 -1 -12.9000 76.9000 3 9.90000 -13.3000 74.6000 TC 25 -13.3000 74.6000 7 -12.9000 76.9000 TC 35 7 132
1967342S08078 1968 141 SI MM BELINDA 1967-12-13 09:00:00 TS -13.4727 75.0835 main 1990 1980 P____P___PP_P_ SH031968 -13.5650 74.6000 -1 -13.2102 76.5129 3 -13.5650 74.6000 TC 25 -13.5506 74.6210 7 -13.2102 76.5129 TC 35 5 155
1967342S08078 1968 141 SI MM BELINDA 1967-12-13 12:00:00 TS -13.6956 75.1428 reunion main 1980 1980 O____O___OP_O_ jtwc_sh SH031968 -13.8000 74.6000 -1 -13.5000 76.2000 99 9.90000 -13.8000 74.6000 TC 25 -13.7800 74.6426 7 -13.5000 76.2000 TC 35 5 167
1967342S08078 1968 141 SI MM BELINDA 1967-12-13 15:00:00 TS -13.9098 75.1904 main 1981 1962 P____P___PP_P_ SH031968 -14.0075 74.6425 -1 -13.7699 75.9997 99 -14.0075 74.6425 TC 30 -13.9944 74.6679 7 -13.7699 75.9997 TC 37 5 182
1967342S08078 1968 141 SI MM BELINDA 1967-12-13 18:00:00 TS -14.1600 75.1400 reunion main 1958 1940 O____O___OO_O_ jtwc_sh SH031968 -14.2000 74.7000 -1 -14.1000 75.8000 99 9.90000 -14.2000 74.7000 TC 35 -14.2000 74.7000 2 -14.1000 75.8000 TC 40 6 196
1967342S08078 1968 141 SI MM BELINDA 1967-12-13 21:00:00 TS -14.4638 75.0205 main 1935 1913 P____P___PP_P_ SH031968 -14.4000 74.7500 -1 -14.5702 75.4279 99 -14.4000 74.7500 TC 35 -14.3788 74.7469 2 -14.5702 75.4279 TC 40 7 199
1967342S08078 1968 141 SI MM BELINDA 1967-12-14 00:00:00 TS -14.7910 74.9200 reunion main 1913 1901 O____O___OP_O_ jtwc_sh SH031968 -14.6000 74.8000 -1 -15.1000 75.1000 99 9.90000 -14.6000 74.8000 TC 35 -14.5550 74.8000 2 -15.1000 75.1000 TC 40 7 189
1967342S08078 1968 141 SI MM BELINDA 1967-12-14 03:00:00 TS -15.1137 74.9095 main 1901 1890 P____P___PP_P_ SH031968 -14.7775 74.8500 -1 -15.6299 74.9972 99 -14.7775 74.8500 TC 35 -14.7538 74.8531 2 -15.6299 74.9972 TC 42 7 0
1967342S08078 1968 141 SI MM BELINDA 1967-12-14 06:00:00 TS -15.4400 74.9400 reunion main 1890 1882 O____O___OO_O_ jtwc_sh SH031968 -15.0000 74.9000 -1 -16.1000 75.0000 3 9.90000 -15.0000 74.9000 TC 35 -15.0000 74.9000 2 -16.1000 75.0000 TC 45 7 175
1967342S08078 1968 141 SI MM BELINDA 1967-12-14 09:00:00 TS -15.7772 74.9672 main 1885 1875 P____P___PP_P_ SH031968 -15.3200 74.9575 -1 -16.4525 74.9924 3 -15.3200 74.9575 TC 35 -15.3409 74.9362 2 -16.4525 74.9924 TC 45 7 175
1967342S08078 1968 141 SI MM BELINDA 1967-12-14 12:00:00 TS -16.1055 74.9930 reunion main 1875 1866 O____O___OP_O_ jtwc_sh SH031968 -15.7000 75.0000 -1 -16.7000 75.0000 99 9.90000 -15.7000 75.0000 TC 35 -15.7275 74.9650 2 -16.7000 75.0000 TC 45 6 177
1967342S08078 1968 141 SI MM BELINDA 1967-12-14 15:00:00 TS -16.4081 75.0003 main 1866 1856 P____P___PP_P_ SH031968 -16.1075 75.0075 -1 -16.8500 75.0000 99 -16.1075 75.0075 TC 35 -16.1253 74.9862 2 -16.8500 75.0000 TC 47 6 178
1967342S08078 1968 141 SI MM BELINDA 1967-12-14 18:00:00 TS -16.7000 75.0000 reunion main 1856 1848 O____O___OO_O_ jtwc_sh SH031968 -16.5000 75.0000 -1 -17.0000 75.0000 99 9.90000 -16.5000 75.0000 TC 35 -16.5000 75.0000 2 -17.0000 75.0000 TC 50 6 0
1967342S08078 1968 141 SI MM BELINDA 1967-12-14 21:00:00 TS -17.0084 75.0093 main 1848 1840 P____P___PP_P_ SH031968 -16.8225 75.0000 -1 -17.2925 75.0075 99 -16.8225 75.0000 TC 35 -16.8118 75.0314 2 -17.2925 75.0075 TC 50 6 0
1967342S08078 1968 141 SI MM BELINDA 1967-12-15 00:00:00 TS -17.2990 75.0104 reunion main 1840 1835 O____O___OP_O_ jtwc_sh SH031968 -17.1000 75.0000 -1 -17.6000 75.0000 99 9.90000 -17.1000 75.0000 TC 35 -17.0949 75.0522 2 -17.6000 75.0000 TC 50 5 182
1967342S08078 1968 141 SI MM BELINDA 1967-12-15 03:00:00 TS -17.5461 75.0014 main 1835 1830 P____P___PP_P_ SH031968 -17.3575 75.0149 -1 -17.8300 74.9650 99 -17.3575 75.0149 TC 35 -17.3555 75.0470 2 -17.8300 74.9650 TC 52 5 185
1967342S08078 1968 141 SI MM BELINDA 1967-12-15 06:00:00 TS -17.7600 74.9600 reunion main 1828 1815 O____O___OO_O_ jtwc_sh SH031968 -17.6000 75.0000 -1 -18.0000 74.9000 3 9.90000 -17.6000 75.0000 TC 35 -17.6000 75.0000 2 -18.0000 74.9000 TC 55 4 196
1967342S08078 1968 141 SI MM BELINDA 1967-12-15 09:00:00 TS -17.9541 74.8799 main 1813 1801 P____P___PP_P_ SH031968 -17.8575 74.9300 -1 -18.1000 74.8149 3 -17.8575 74.9300 TC 35 -17.8556 74.9095 2 -18.1000 74.8149 TC 55 4 207
1967342S08078 1968 141 SI MM BELINDA 1967-12-15 12:00:00 TS -18.1390 74.7550 reunion main 1801 1776 O____O___OP_O_ jtwc_sh SH031968 -18.1000 74.8000 -1 -18.2000 74.7000 99 9.90000 -18.1000 74.8000 TC 35 -18.0949 74.7752 2 -18.2000 74.7000 TC 55 5 215
1967342S08078 1968 141 SI MM BELINDA 1967-12-15 15:00:00 TS -18.3484 74.5897 main 1776 1751 P____P___PP_P_ SH031968 -18.3150 74.6225 -1 -18.4000 74.5501 99 -18.3150 74.6225 TC 35 -18.3118 74.6032 2 -18.4000 74.5501 TC 57 5 220
1967342S08078 1968 141 SI MM BELINDA 1967-12-15 18:00:00 TS -18.5400 74.4000 reunion main 1751 1727 O____O___OO_O_ jtwc_sh SH031968 -18.5000 74.4000 -1 -18.6000 74.4000 99 9.90000 -18.5000 74.4000 TC 35 -18.5000 74.4000 2 -18.6000 74.4000 TC 60 5 226
1967342S08078 1968 141 SI MM BELINDA 1967-12-15 21:00:00 TS -18.6868 74.2141 main 1727 1705 P____P___PP_P_ SH031968 -18.6650 74.1575 -1 -18.7150 74.2924 99 -18.6650 74.1575 TC 35 -18.6742 74.1707 2 -18.7150 74.2924 TC 62 4 233
1967342S08078 1968 141 SI MM BELINDA 1967-12-16 00:00:00 TS -18.8035 74.0230 reunion main 1705 1682 O____O___OP_O_ jtwc_sh SH031968 -18.8000 73.9000 -1 -18.8000 74.2000 99 9.90000 -18.8000 73.9000 TC 35 -18.8177 73.9152 2 -18.8000 74.2000 TC 65 4 237
1967342S08078 1968 141 SI MM BELINDA 1967-12-16 03:00:00 TS -18.9204 73.8394 main 1682 1670 P____P___PP_P_ SH031968 -18.9225 73.6425 -1 -18.9149 74.1300 99 -18.9225 73.6425 TC 35 -18.9273 73.6520 2 -18.9149 74.1300 TC 67 4 242
1967342S08078 1968 141 SI MM BELINDA 1967-12-16 06:00:00 TS -19.0000 73.6400 reunion main 1660 1639 O____O___OO_O_ jtwc_sh SH031968 -19.0000 73.4000 -1 -19.0000 74.0000 4 9.90000 -19.0000 73.4000 TC 35 -19.0000 73.4000 2 -19.0000 74.0000 TC 70 4 257
1967342S08078 1968 141 SI MM BELINDA 1967-12-16 09:00:00 TS -19.0162 73.4006 main 1639 1618 P____P___PP_P_ SH031968 -19.0150 73.1924 -1 -19.0076 73.7224 4 -19.0150 73.1924 TC 35 -19.0359 73.1732 2 -19.0076 73.7224 TC 70 5 269
1967342S08078 1968 141 SI MM BELINDA 1967-12-16 12:00:00 TS -19.0075 73.1524 reunion main 1618 1587 O____O___OP_O_ jtwc_sh SH031968 -19.0000 73.0000 -1 -19.0000 73.4000 99 9.90000 -19.0000 73.0000 TC 35 -19.0374 72.9622 2 -19.0000 73.4000 TC 70 4 269
1967342S08078 1968 141 SI MM BELINDA 1967-12-16 15:00:00 TS -19.0210 72.9340 main 1587 1566 P____P___PP_P_ SH031968 -19.0000 72.7925 -1 -19.0424 73.1575 99 -19.0000 72.7925 TC 35 -19.0203 72.7701 2 -19.0424 73.1575 TC 70 4 265
1967342S08078 1968 141 SI MM BELINDA 1967-12-16 18:00:00 TS -19.0400 72.7200 reunion main 1566 1544 O____O___OO_O_ jtwc_sh SH031968 -19.0000 72.6000 -1 -19.1000 72.9000 99 9.90000 -19.0000 72.6000 TC 35 -19.0000 72.6000 2 -19.1000 72.9000 TC 70 4 266
1967342S08078 1968 141 SI MM BELINDA 1967-12-16 21:00:00 TS -19.0532 72.4893 main 1544 1523 P____P___PP_P_ SH031968 -19.0000 72.4350 -1 -19.1351 72.5574 99 -19.0000 72.4350 TC 35 -18.9958 72.4615 2 -19.1351 72.5574 TC 70 4 265
1967342S08078 1968 141 SI MM BELINDA 1967-12-17 00:00:00 TS -19.0785 72.2685 reunion main 1523 1502 O____O___OP_O_ jtwc_sh SH031968 -19.0000 72.3000 -1 -19.2000 72.2000 99 9.90000 -19.0000 72.3000 TC 35 -18.9923 72.3425 2 -19.2000 72.2000 TC 70 4 258
1967342S08078 1968 141 SI MM BELINDA 1967-12-17 03:00:00 TS -19.1415 72.0645 main 1502 1480 P____P___PP_P_ SH031968 -19.0000 72.2000 -1 -19.3576 71.8477 99 -19.0000 72.2000 TC 35 -18.9927 72.2271 2 -19.3576 71.8477 TC 72 4 251
1967342S08078 1968 141 SI MM BELINDA 1967-12-17 06:00:00 TS -19.2000 71.9000 reunion main 1480 1469 O____O___OO_O_ jtwc_sh SH031968 -19.0000 72.1000 -1 -19.5000 71.6000 4 9.90000 -19.0000 72.1000 TC 35 -19.0000 72.1000 2 -19.5000 71.6000 TC 75 3 255
1967342S08078 1968 141 SI MM BELINDA 1967-12-17 09:00:00 TS -19.2103 71.7975 main 1469 1459 P____P___PP_P_ SH031968 -18.9925 71.9650 -1 -19.5224 71.5549 4 -18.9925 71.9650 TC 35 -19.0218 71.9475 2 -19.5224 71.5549 TC 75 2 267
1967342S08078 1968 141 SI MM BELINDA 1967-12-17 12:00:00 TS -19.2100 71.7160 reunion main 1459 1448 O____O___OP_O_ jtwc_sh SH031968 -19.0000 71.8000 -1 -19.5000 71.6000 99 9.90000 -19.0000 71.8000 TC 35 -19.0499 71.7801 2 -19.5000 71.6000 TC 75 2 262
1967342S08078 1968 141 SI MM BELINDA 1967-12-17 15:00:00 TS -19.2356 71.6025 main 1448 1437 P____P___PP_P_ SH031968 -19.0500 71.6075 -1 -19.5000 71.6000 99 -19.0500 71.6075 TC 35 -19.0780 71.5975 2 -19.5000 71.6000 TC 75 2 257
1967342S08078 1968 141 SI MM BELINDA 1967-12-17 18:00:00 TS -19.2600 71.4800 reunion main 1437 1426 O____O___OO_O_ jtwc_sh SH031968 -19.1000 71.4000 -1 -19.5000 71.6000 99 9.90000 -19.1000 71.4000 TC 35 -19.1000 71.4000 2 -19.5000 71.6000 TC 75 2 263
1967342S08078 1968 141 SI MM BELINDA 1967-12-17 21:00:00 TS -19.2652 71.3592 main 1426 1405 P____P___PP_P_ SH031968 -19.1075 71.2075 -1 -19.5000 71.6000 99 -19.1075 71.2075 TC 35 -19.1113 71.1812 2 -19.5000 71.6000 TC 75 2 269
1967342S08078 1968 141 SI MM BELINDA 1967-12-18 00:00:00 TS -19.2630 71.2300 reunion main 1405 1395 O____O___OP_O_ jtwc_sh SH031968 -19.1000 71.0000 -1 -19.5000 71.6000 99 9.90000 -19.1000 71.0000 TC 35 -19.1151 70.9500 2 -19.5000 71.6000 TC 75 3 270
1967342S08078 1968 141 SI MM BELINDA 1967-12-18 03:00:00 TS -19.2653 71.0928 main 1395 1374 P____P___PP_P_ SH031968 -19.1075 70.7425 -1 -19.5000 71.6300 99 -19.1075 70.7425 TC 35 -19.1113 70.7188 2 -19.5000 71.6300 TC 75 3 271
1967342S08078 1968 141 SI MM BELINDA 1967-12-18 06:00:00 TS -19.2600 70.9400 reunion main 1374 1365 O____O___OO_O_ jtwc_sh SH031968 -19.1000 70.5000 -1 -19.5000 71.6000 4 9.90000 -19.1000 70.5000 TC 35 -19.1000 70.5000 2 -19.5000 71.6000 TC 75 3 277
1967342S08078 1968 141 SI MM BELINDA 1967-12-18 09:00:00 TS -19.2296 70.7667 main 1365 1344 P____P___PP_P_ SH031968 -19.0499 70.3425 -1 -19.4851 71.4150 4 -19.0499 70.3425 TC 35 -19.0779 70.3187 2 -19.4851 71.4150 TC 75 3 279
1967342S08078 1968 141 SI MM BELINDA 1967-12-18 12:00:00 TS -19.2099 70.5900 reunion main 1344 1323 O____O___OP_O_ jtwc_sh SH031968 -19.0000 70.2000 -1 -19.5000 71.2000 99 9.90000 -19.0000 70.2000 TC 35 -19.0497 70.1499 2 -19.5000 71.2000 TC 75 3 268
1967342S08078 1968 141 SI MM BELINDA 1967-12-18 15:00:00 TS -19.2383 70.4333 main 1323 1312 P____P___PP_P_ SH031968 -18.9925 70.0075 -1 -19.5925 71.0850 99 -18.9925 70.0075 TC 35 -19.0217 69.9812 2 -19.5925 71.0850 TC 72 3 257
1967342S08078 1968 141 SI MM BELINDA 1967-12-18 18:00:00 TS -19.2800 70.2800 reunion main 1312 1291 O____O___OO_O_ jtwc_sh SH031968 -19.0000 69.8000 -1 -19.7000 71.0000 99 9.90000 -19.0000 69.8000 TC 35 -19.0000 69.8000 2 -19.7000 71.0000 TC 70 3 258
1967342S08078 1968 141 SI MM BELINDA 1967-12-18 21:00:00 TS -19.2985 70.1209 main 1291 1280 P____P___PP_P_ SH031968 -19.0000 69.6075 -1 -19.7500 70.9000 99 -19.0000 69.6075 TC 35 -18.9928 69.5894 2 -19.7500 70.9000 TC 70 3 263
1967342S08078 1968 141 SI MM BELINDA 1967-12-19 00:00:00 TS -19.3185 69.9530 reunion main 1280 1258 O____O___OP_O_ jtwc_sh SH031968 -19.0000 69.4000 -1 -19.8000 70.8000 99 9.90000 -19.0000 69.4000 TC 35 -18.9925 69.3650 2 -19.8000 70.8000 TC 70 3 260
1967342S08078 1968 141 SI MM BELINDA 1967-12-19 03:00:00 TS -19.3592 69.7726 main 1258 1237 P____P___PP_P_ SH031968 -19.0000 69.1500 -1 -19.9000 70.7150 99 -19.0000 69.1500 TC 35 -18.9959 69.1332 2 -19.9000 70.7150 TC 70 4 257
1967342S08078 1968 141 SI MM BELINDA 1967-12-19 06:00:00 TS -19.4000 69.5800 reunion main 1237 1217 O____O___OO_O_ jtwc_sh SH031968 -19.0000 68.9000 -1 -20.0000 70.6000 4 9.90000 -19.0000 68.9000 TC 35 -19.0000 68.9000 2 -20.0000 70.6000 TC 70 4 261
1967342S08078 1968 141 SI MM BELINDA 1967-12-19 09:00:00 TS -19.4162 69.3728 main 1217 1196 P____P___PP_P_ SH031968 -18.9999 68.7000 -1 -20.0426 70.3925 4 -18.9999 68.7000 TC 35 -18.9958 68.6790 2 -20.0426 70.3925 TC 67 4 264
1967342S08078 1968 141 SI MM BELINDA 1967-12-19 12:00:00 TS -19.4385 69.1715 reunion main 1196 1174 O____O___OP_O_ jtwc_sh SH031968 -19.0000 68.5000 -1 -20.1000 70.2000 99 9.90000 -19.0000 68.5000 TC 35 -18.9923 68.4574 2 -20.1000 70.2000 TC 65 4 258
1967342S08078 1968 141 SI MM BELINDA 1967-12-19 15:00:00 TS -19.4895 69.0004 main 1174 1152 P____P___PP_P_ SH031968 -19.0000 68.2575 -1 -20.2275 70.1275 99 -19.0000 68.2575 TC 35 -18.9927 68.2321 2 -20.2275 70.1275 TC 62 3 249
1967342S08078 1968 141 SI MM BELINDA 1967-12-19 18:00:00 TS -19.5600 68.8400 reunion main 1152 1141 O____O___OO_O_ jtwc_sh SH031968 -19.0000 68.0000 -1 -20.4000 70.1000 99 9.90000 -19.0000 68.0000 TC 35 -19.0000 68.0000 2 -20.4000 70.1000 TC 60 3 245
1967342S08078 1968 141 SI MM BELINDA 1967-12-19 21:00:00 TS -19.6354 68.6684 main 1141 1119 P____P___PP_P_ SH031968 -18.9925 67.7500 -1 -20.6075 70.0425 99 -18.9925 67.7500 TC 35 -18.9771 67.7568 2 -20.6075 70.0425 TC 60 4 244
1967342S08078 1968 141 SI MM BELINDA 1967-12-20 00:00:00 TS -19.7135 68.5014 reunion main 1119 1108 O____O___OP_O_ jtwc_sh SH031968 -19.0000 67.5000 -1 -20.8000 70.0000 99 9.90000 -19.0000 67.5000 TC 35 -18.9674 67.5068 2 -20.8000 70.0000 TC 60 3 245
1967342S08078 1968 141 SI MM BELINDA 1967-12-20 03:00:00 TS -19.7768 68.3507 main 1108 1086 P____P___PP_P_ SH031968 -19.0200 67.2499 -1 -20.9225 70.0000 99 -19.0200 67.2499 TC 35 -18.9990 67.2535 2 -20.9225 70.0000 TC 60 3 243
1967342S08078 1968 141 SI MM BELINDA 1967-12-20 06:00:00 TS -19.8600 68.2000 reunion main 1086 1065 O____O___OO_O_ jtwc_sh SH031968 -19.1000 67.0000 -1 -21.0000 70.0000 3 9.90000 -19.1000 67.0000 TC 35 -19.1000 67.0000 2 -21.0000 70.0000 TC 60 4 237
1967342S08078 1968 141 SI MM BELINDA 1967-12-20 09:00:00 TS -19.9764 68.0220 main 1065 1053 P____P___PP_P_ SH031968 -19.2550 66.7499 -1 -21.0425 69.9500 3 -19.2550 66.7499 TC 35 -19.2871 66.7101 2 -21.0425 69.9500 TC 57 4 229
1967342S08078 1968 141 SI MM BELINDA 1967-12-20 12:00:00 TS -20.1491 67.8452 reunion main 1043 1031 O____O___OP_O_ jtwc_sh SH031968 -19.5000 66.5000 -1 -21.1000 69.9000 99 9.90000 -19.5000 66.5000 TC 35 -19.5453 66.4261 2 -21.1000 69.9000 TC 55 5 217
1967342S08078 1968 141 SI MM BELINDA 1967-12-20 15:00:00 TS -20.3992 67.6838 main 1031 1021 P____P___PP_P_ SH031968 -19.8275 66.2276 -1 -21.2425 69.8925 99 -19.8275 66.2276 TC 35 -19.8558 66.1789 2 -21.2425 69.8925 TC 52 6 207
1967342S08078 1968 141 SI MM BELINDA 1967-12-20 18:00:00 TS -20.6800 67.5600 reunion main 1021 1010 O____O___OO_O_ jtwc_sh SH031968 -20.2000 66.0000 -1 -21.4000 69.9000 99 9.90000 -20.2000 66.0000 TC 35 -20.2000 66.0000 2 -21.4000 69.9000 TC 50 6 201
1967342S08078 1968 141 SI MM BELINDA 1967-12-20 21:00:00 TS -20.9226 67.4734 main 1011 1002 P____P___PP_P_ SH031968 -20.5424 65.8475 -1 -21.5075 69.9000 99 -20.5424 65.8475 TC 35 -20.5133 65.8720 2 -21.5075 69.9000 TC 47 5 192
1967342S08078 1968 141 SI MM BELINDA 1967-12-21 00:00:00 TS -21.1719 67.4443 reunion main 1002 1002 O____O___OP_O_ jtwc_sh SH031968 -20.9000 65.8000 -1 -21.6000 69.9000 99 9.90000 -20.9000 65.8000 TC 35 -20.8593 65.8215 2 -21.6000 69.9000 TC 45 5 0
1967342S08078 1968 141 SI MM BELINDA 1967-12-21 03:00:00 TS -21.4231 67.4711 main 1015 1015 P____P___PP_P_ SH031968 -21.2699 65.8402 -1 -21.6625 69.9075 99 -21.2699 65.8402 TC 35 -21.2507 65.8602 2 -21.6625 69.9075 TC 42 6 170
1967342S08078 1968 141 SI MM BELINDA 1967-12-21 06:00:00 TS -21.7400 67.5600 reunion main 1028 1028 O____O___OO_O_ jtwc_sh SH031968 -21.7000 66.0000 -1 -21.8000 69.9000 3 9.90000 -21.7000 66.0000 TC 35 -21.7000 66.0000 2 -21.8000 69.9000 TC 40 8 165
1967342S08078 1968 141 SI MM BELINDA 1967-12-21 09:00:00 TS -22.1572 67.6826 main 1047 1047 P____P___PP_P_ SH031968 -22.2200 66.2551 -1 -22.0600 69.8353 3 -22.2200 66.2551 TC 35 -22.2258 66.2323 2 -22.0600 69.8353 TC 37 10 163
1967342S08078 1968 141 SI MM BELINDA 1967-12-21 12:00:00 TS -22.6810 67.8728 reunion main 1078 1078 O____O___OP_O_ jtwc_sh SH031968 -22.8000 66.6000 -1 -22.5000 69.8000 99 9.90000 -22.8000 66.6000 TC 35 -22.8052 66.5640 2 -22.5000 69.8000 TC 35 12 160
1967342S08078 1968 141 SI MM BELINDA 1967-12-21 15:00:00 TS -23.3124 68.1347 main 1114 1114 P____P___PP_P_ SH031968 -23.3999 66.9776 -1 -23.1775 69.8772 99 -23.3999 66.9776 TC 35 -23.4070 66.9640 2 -23.1775 69.8772 TC 32 14 158
1967342S08078 1968 141 SI MM BELINDA 1967-12-21 18:00:00 TS -23.9600 68.4400 reunion main 1166 1166 O____O___OO_O_ jtwc_sh SH031968 -24.0000 67.4000 -1 -23.9000 70.0000 99 9.90000 -24.0000 67.4000 TC 35 -24.0000 67.4000 2 -23.9000 70.0000 TC 30 13 156
1967342S08078 1968 141 SI MM BELINDA 1967-12-21 21:00:00 TS -24.5100 68.7313 main 1214 1214 P____P___PP_P_ SH031968 -24.5649 67.8428 -1 -24.4298 70.0631 99 -24.5649 67.8428 TC 35 -24.5603 67.8449 2 -24.4298 70.0631 TC 30 13 147
1967342S08078 1968 141 SI MM BELINDA 1967-12-22 00:00:00 TS -25.0042 69.1929 reunion main 1280 1280 O____O___OP_O_ jtwc_sh SH031968 -25.1000 68.3000 -1 -24.9000 70.2000 99 9.90000 -25.1000 68.3000 TC 35 -25.0907 68.2931 2 -24.9000 70.2000 TC 30 14 137
1967342S08078 1968 141 SI MM BELINDA 1967-12-22 03:00:00 TS -25.5311 69.7863 main 1357 1357 P____P___PP_P_ SH031968 -25.6077 68.7518 -1 -25.4754 70.5640 99 -25.6077 68.7518 TC 35 -25.6008 68.7448 2 -25.4754 70.5640 TC 30 15 130
1967342S08078 1968 141 SI MM BELINDA 1967-12-22 06:00:00 TS -25.9545 70.4364 reunion main 1434 1434 O____O___OO_O_ jtwc_sh SH031968 -26.1000 69.2000 -1 -25.9000 70.9000 6 9.90000 -26.1000 69.2000 TC 35 -26.1000 69.2000 2 -25.9000 70.9000 TC 30 11 113
1967342S08078 1968 141 SI MM BELINDA 1967-12-22 09:00:00 TS -25.9749 70.9530 main 1489 1476 _____P______P_ SH031968 -1 -25.9749 70.9530 6 TC 2 -25.9749 70.9530 TC 27 4 83
1967342S08078 1968 141 SI MM BELINDA 1967-12-22 12:00:00 TS -25.9000 70.9000 reunion main 1476 1476 _____O______O_ -1 -25.9000 70.9000 99 9.90000 2 -25.9000 70.9000 TC 25 1 328
1967342S08078 1968 141 SI MM BELINDA 1967-12-22 15:00:00 TS -25.9000 70.9000 main 1476 1476 _____P______P_ -1 -25.9000 70.9000 99 2 -25.9000 70.9000 TC 25 0 0
1967342S08078 1968 141 SI MM BELINDA 1967-12-22 18:00:00 TS -25.9000 70.9000 reunion main 1476 1476 _____O______O_ -1 -25.9000 70.9000 99 9.90000 -25.9000 70.9000 TC 25 0 0
1967342S08078 1968 141 SI MM BELINDA 1967-12-22 21:00:00 TS -25.9000 70.9000 main 1476 1476 _____P______P_ -1 -25.9000 70.9000 99 -25.9000 70.9000 TC 25 0 0
1967342S08078 1968 141 SI MM BELINDA 1967-12-23 00:00:00 TS -25.9000 70.9000 reunion main 1476 1476 _____O______O_ -1 -25.9000 70.9000 99 9.90000 -25.9000 70.9000 TC 25 0 0
1967342S08078 1968 141 SI MM BELINDA 1967-12-23 03:00:00 TS -25.9000 70.9000 main 1476 1476 _____P______P_ -1 -25.9000 70.9000 99 -25.9000 70.9000 TC 22 0 0
1967342S08078 1968 141 SI MM BELINDA 1967-12-23 06:00:00 TS -25.9000 70.9000 reunion main 1476 _____O______O_ -1 -25.9000 70.9000 6 9.90000 -25.9000 70.9000 TC 20 0 0

About IBTrACS Database

This database is a web-friendly format of International Best Track Archive for Climate Stewardship (IBTrACS), a global best track data archive curated by NOAA dating back to 1842.

Updated: 2021-12-01